Perris, California
Current Conditions -  °F | °C
As of 7:58 AM on Monday 26 Jan 2015 (Local Time) from KRIV Reporting Station
Few Clouds Few Clouds  
Wind Chill: 60°   Ceiling: Unl
Heat Index: 60°   Visibility: 10mi
Dew Point: 35°   Wind: 7mph
Humidity: 38%   Direction: NA
Pressure: 30.04"   Gusts: NA
Location:  33.78°N, 117.22°W
Report Text: KRIV 261558Z AUTO VRB06KT 10SM FEW095 16/01 A3004 RMK AO2 SLP167 T01580014
Loading
Personal Weather Stations






























Interactive Weather Map New forecast layout! Learn more

10-Day Weather Forecast

Advertisements
Track Severe Weather on mobile